Pagrindinis puslapis
METAR-TAF:

METAR-TAF

Oro uostai :

Decimomannu, Italija

platuma: 39-21N, ilguma: 008-58E, Aukštis: 29 m

Dabartinis oras

Ataskaita buvo paskelbta 1 valandą ir 4 minutes, ne 18:55 UTC
Vėjas 4 kt iš Pietryčių
Temperatūra 26°C
Drėgmė 84%
Slėgis 1015 hPa
Matomumas 10 km arba daugiau
Išsisklaidę debesys ne aukštis 2500 ft

METAR: LIED 191855Z 14004KT 9999 SCT025 26/23 Q1015 RMK SCT VIS MIN 9999 WIND THR35 13004KT WIND THR17 /////KT BLU

Laikas: 21:59 (19:59 UTC)

Prognozė

Ataskaita buvo paskelbta 14 valandos ir 59 minutes, ne 05:00 UTC
Prognozė galioja nuo 19 metu 06 UTC su 19 metu 15 UTC
Vėjas 3 kt nuo kintamojo kryptimis
Matomumas 10 km arba daugiau
nėra debesų žemiau 1500 m ir nėra kamuolinių lietaus debesų
Tapsmas
nuo 19 metu 08 UTC su 19 metu 10 UTC
Vėjas 10 kt iš Vakarų/Šiaurės Vakarų
Matomumas 10 km arba daugiau
Išsisklaidę debesys ne aukštis 2500 ft

TAF: LIED 190500Z 1906/1915 VRB03KT CAVOK BECMG 1908/1910 30010KT 9999 SCT025

Orai ataskaitas ir orų prognozės (METAR, TAF).

turimą stotys yra geltonos ir raudonos taškus žemėlapyje.

Perkelti pele per norėdami pamatyti stoties vardą.

Tada spustelėkite, norėdami matyti oro stebėjimo ir prognozės.

Norėdami pakeisti žemėlapį: spustelėkite ant žalios mygtukų su juodo kryžiaus žemyn,; žalią mygtuką su brūkšneliu, jei norite nutolinti; arba žalių rodyklių gretimoms žemėlapius.


METAR-TAF: